createdAt,value
2017-11-25T14:51:59.115Z,8.20
2017-11-25T14:53:05.012Z,7.11
2017-11-25T14:54:10.140Z,7.35
2017-11-25T14:55:14.689Z,7.68
2017-11-25T14:56:19.954Z,7.51
2017-11-25T14:57:25.632Z,6.31
2017-11-25T14:58:30.051Z,6.13
2017-11-25T14:59:34.284Z,7.43
2017-11-25T15:00:39.499Z,7.93
2017-11-25T15:01:45.491Z,8.09
2017-11-25T15:02:50.087Z,8.13
2017-11-25T15:03:55.746Z,8.13
2017-11-25T15:05:00.855Z,8.09
2017-11-25T15:06:07.400Z,8.02
2017-11-25T15:07:11.765Z,7.97
2017-11-25T15:08:17.365Z,7.91
2017-11-25T15:09:22.694Z,7.89
2017-11-25T15:10:26.985Z,7.81
2017-11-25T15:11:33.259Z,7.78
2017-11-25T15:12:38.549Z,7.75
2017-11-25T15:13:44.148Z,7.68
2017-11-25T15:14:48.845Z,7.65
2017-11-25T15:15:55.588Z,7.60
2017-11-25T15:17:00.547Z,7.53
2017-11-25T15:18:04.991Z,7.46
2017-11-25T15:19:09.300Z,7.41
2017-11-25T15:20:14.989Z,7.37
2017-11-25T15:21:21.651Z,7.33
2017-11-25T15:22:26.676Z,7.29
2017-11-25T15:23:31.909Z,7.29
2017-11-25T15:24:37.152Z,7.27
2017-11-25T15:25:41.954Z,7.25
2017-11-25T15:26:46.500Z,7.24
2017-11-25T15:27:51.093Z,7.20
2017-11-25T15:28:55.860Z,7.14
2017-11-25T15:30:01.417Z,7.08
2017-11-25T15:31:06.064Z,7.04
2017-11-25T15:32:11.284Z,7.04
2017-11-25T15:33:16.594Z,7.08
2017-11-25T15:34:21.005Z,7.10
2017-11-25T15:35:26.722Z,7.13
2017-11-25T15:36:31.637Z,7.16
2017-11-25T15:37:36.528Z,7.15
2017-11-25T15:38:41.180Z,7.10
2017-11-25T15:39:46.450Z,7.09
2017-11-25T15:40:53.933Z,7.08
2017-11-25T15:41:58.759Z,7.06
2017-11-25T15:43:04.841Z,7.03
2017-11-25T15:44:09.560Z,6.99
2017-11-25T15:45:13.980Z,7.00
2017-11-25T15:46:18.618Z,6.99
2017-11-25T15:47:23.924Z,6.96
2017-11-25T15:48:28.598Z,6.93
2017-11-25T15:49:34.867Z,6.92
2017-11-25T15:50:39.746Z,6.91
2017-11-25T15:51:44.470Z,6.88
2017-11-25T15:52:48.976Z,6.87
2017-11-25T15:53:53.437Z,6.84
2017-11-25T15:54:57.995Z,6.83
2017-11-25T15:56:02.328Z,6.90
2017-11-25T15:57:07.156Z,6.90
2017-11-25T15:58:12.992Z,6.89
2017-11-25T15:59:18.327Z,6.89
2017-11-25T16:00:24.679Z,6.87
2017-11-25T16:01:29.804Z,6.83
2017-11-25T16:02:35.147Z,6.82
2017-11-25T16:03:41.131Z,6.78
2017-11-25T16:04:45.697Z,6.75
2017-11-25T16:05:51.129Z,6.79
2017-11-25T16:06:56.531Z,6.79
2017-11-25T16:08:01.007Z,6.75
2017-11-25T16:09:05.845Z,6.64
2017-11-25T16:10:10.369Z,6.62
2017-11-25T16:11:15.536Z,6.63
2017-11-25T16:12:21.255Z,6.59
2017-11-25T16:13:26.955Z,6.61
2017-11-25T16:14:31.912Z,6.62
2017-11-25T16:15:36.565Z,6.59
2017-11-25T16:16:41.808Z,6.58
2017-11-25T16:17:46.203Z,6.57
2017-11-25T16:18:50.698Z,6.59
2017-11-25T16:19:55.232Z,6.61
2017-11-25T16:20:59.832Z,6.63
2017-11-25T16:22:05.069Z,6.61
2017-11-25T16:23:09.693Z,6.62
2017-11-25T16:24:14.507Z,6.59
2017-11-25T16:25:19.423Z,6.50
2017-11-25T16:26:24.610Z,6.41
2017-11-25T16:27:29.318Z,6.39
2017-11-25T16:28:34.492Z,6.37
2017-11-25T16:29:39.114Z,6.36
2017-11-25T16:30:45.163Z,6.29
2017-11-25T16:31:50.714Z,6.28
2017-11-25T16:32:56.020Z,6.27
2017-11-25T16:34:01.248Z,6.26
2017-11-25T16:35:05.522Z,6.28
2017-11-25T16:36:10.477Z,6.26
2017-11-25T16:37:15.833Z,6.24
2017-11-25T16:38:21.348Z,6.19
2017-11-25T16:39:26.488Z,6.17
2017-11-25T16:40:31.980Z,6.19
2017-11-25T16:41:36.524Z,6.22
2017-11-25T16:42:41.698Z,6.22
2017-11-25T16:43:46.065Z,6.26
2017-11-25T16:44:50.307Z,6.30
2017-11-25T16:45:54.800Z,6.33
2017-11-25T16:47:00.109Z,6.32
2017-11-25T16:48:15.937Z,6.28
2017-11-25T16:49:21.069Z,6.31
2017-11-25T16:50:25.489Z,6.31
2017-11-25T16:51:29.831Z,6.30
2017-11-25T16:52:34.978Z,6.26
2017-11-25T16:53:40.287Z,6.27
2017-11-25T16:54:46.954Z,6.25
2017-11-25T16:55:51.203Z,6.22
2017-11-25T16:56:57.847Z,6.20
2017-11-25T16:58:02.651Z,6.18
2017-11-25T16:59:07.768Z,6.18
2017-11-25T17:00:12.925Z,6.16
2017-11-25T17:01:17.994Z,6.19
2017-11-25T17:02:22.175Z,6.16
2017-11-25T17:03:26.362Z,6.20
2017-11-25T17:04:31.398Z,6.21
2017-11-25T17:05:35.551Z,6.36
2017-11-25T17:06:40.658Z,6.29
2017-11-25T17:07:44.920Z,6.22
2017-11-25T17:08:49.605Z,6.19
2017-11-25T17:09:53.940Z,6.18
2017-11-25T17:10:58.250Z,6.15
2017-11-25T17:12:02.603Z,6.17
2017-11-25T17:13:06.870Z,6.10
2017-11-25T17:14:11.204Z,6.08
2017-11-25T17:15:15.758Z,6.05
2017-11-25T17:16:20.064Z,5.99
2017-11-25T17:17:24.269Z,5.97
2017-11-25T17:18:29.334Z,5.94
2017-11-25T17:19:34.009Z,5.96
2017-11-25T17:20:39.116Z,5.96
2017-11-25T17:21:44.161Z,5.96
2017-11-25T17:22:48.468Z,5.99
2017-11-25T17:23:53.225Z,6.01
2017-11-25T17:24:58.007Z,6.01
2017-11-25T17:26:04.177Z,5.99
2017-11-25T17:27:08.510Z,5.95
2017-11-25T17:28:13.693Z,5.92
2017-11-25T17:29:19.123Z,5.92
2017-11-25T17:30:24.769Z,5.92
2017-11-25T17:31:29.977Z,5.92
2017-11-25T17:32:35.266Z,5.90
2017-11-25T17:33:39.847Z,5.97
2017-11-25T17:34:44.460Z,6.00
2017-11-25T17:35:49.885Z,5.98
2017-11-25T17:36:55.219Z,5.97
2017-11-25T17:38:01.172Z,5.94
2017-11-25T17:39:06.472Z,5.94
2017-11-25T17:40:11.007Z,5.96
2017-11-25T17:41:18.244Z,5.96
2017-11-25T17:42:22.855Z,5.95
2017-11-25T17:43:28.083Z,6.11
2017-11-25T17:44:32.945Z,6.09
2017-11-25T17:45:37.869Z,6.08
2017-11-25T17:46:44.371Z,6.07
2017-11-25T17:47:50.058Z,6.07
2017-11-25T17:48:54.996Z,6.05
2017-11-25T17:50:00.361Z,5.98
2017-11-25T17:51:05.248Z,5.96
2017-11-25T17:52:10.676Z,5.97
2017-11-25T17:53:15.861Z,5.96
2017-11-25T17:54:21.241Z,5.98
2017-11-25T17:55:26.711Z,5.99
2017-11-25T17:56:31.329Z,5.96
2017-11-25T17:57:35.797Z,5.94
2017-11-25T17:58:41.324Z,5.92
2017-11-25T17:59:47.142Z,5.93
2017-11-25T18:00:52.406Z,5.87
2017-11-25T18:01:57.910Z,5.86
2017-11-25T18:03:02.593Z,5.90
2017-11-25T18:04:07.117Z,5.86
2017-11-25T18:05:12.449Z,5.88
2017-11-25T18:06:21.119Z,5.86
2017-11-25T18:07:26.650Z,5.85
2017-11-25T18:08:31.878Z,5.82
2017-11-25T18:09:37.147Z,5.81
2017-11-25T18:10:41.721Z,5.82
2017-11-25T18:11:46.971Z,5.79
2017-11-25T18:12:52.177Z,5.78
2017-11-25T18:13:56.763Z,5.78
2017-11-25T18:15:01.320Z,5.79
2017-11-25T18:16:08.089Z,5.79
2017-11-25T18:17:12.532Z,5.77
2017-11-25T18:18:17.915Z,5.87
2017-11-25T18:19:22.400Z,5.88
2017-11-25T18:20:27.346Z,5.86
2017-11-25T18:21:32.688Z,5.81
2017-11-25T18:22:41.172Z,5.79
2017-11-25T18:23:47.009Z,5.75
2017-11-25T18:24:51.544Z,5.74
2017-11-25T18:25:57.639Z,5.75
2017-11-25T18:27:02.833Z,5.78
2017-11-25T18:28:08.929Z,5.78
2017-11-25T18:29:14.517Z,5.82
2017-11-25T18:30:19.357Z,5.81
2017-11-25T18:31:25.073Z,5.80
2017-11-25T18:32:30.674Z,5.76
2017-11-25T18:33:35.249Z,5.74
2017-11-25T18:34:39.948Z,5.72
2017-11-25T18:35:45.334Z,5.71
2017-11-25T18:36:51.218Z,5.69
2017-11-25T18:37:56.855Z,5.71
2017-11-25T18:39:02.320Z,5.67
2017-11-25T18:40:06.902Z,5.66
2017-11-25T18:41:11.930Z,5.66
2017-11-25T18:42:17.381Z,5.59
2017-11-25T18:43:21.910Z,5.60
2017-11-25T18:44:27.515Z,5.57
2017-11-25T18:45:33.768Z,5.54
2017-11-25T18:46:39.114Z,5.52
2017-11-25T18:47:44.079Z,5.48
2017-11-25T18:48:49.556Z,5.47
2017-11-25T18:49:54.811Z,5.50
2017-11-25T18:50:59.334Z,5.48
2017-11-25T18:52:04.027Z,5.43
2017-11-25T18:53:10.831Z,5.37
2017-11-25T18:54:15.313Z,5.37
2017-11-25T18:55:20.113Z,5.35
2017-11-25T18:56:25.472Z,5.32
2017-11-25T18:57:30.051Z,5.25
2017-11-25T18:58:35.034Z,5.25
2017-11-25T18:59:41.134Z,5.26
2017-11-25T19:00:46.668Z,5.25
2017-11-25T19:01:51.999Z,5.23
2017-11-25T19:02:57.317Z,5.25
2017-11-25T19:04:02.878Z,5.26
2017-11-25T19:05:07.998Z,5.28
2017-11-25T19:06:12.517Z,5.26
2017-11-25T19:07:17.353Z,5.26
2017-11-25T19:08:22.872Z,5.23
2017-11-25T19:09:29.534Z,5.22
2017-11-25T19:10:35.076Z,5.22
2017-11-25T19:11:39.833Z,5.23
2017-11-25T19:12:44.505Z,5.24
2017-11-25T19:13:49.620Z,5.25
2017-11-25T19:14:54.955Z,5.27
2017-11-25T19:15:59.471Z,5.27
2017-11-25T19:17:05.720Z,5.29
2017-11-25T19:18:11.049Z,5.30
2017-11-25T19:19:16.430Z,5.32
2017-11-25T19:20:20.999Z,5.34
2017-11-25T19:21:26.326Z,5.35
2017-11-25T19:22:32.003Z,5.32
2017-11-25T19:23:36.491Z,5.32
2017-11-25T19:24:42.110Z,5.32
2017-11-25T19:25:46.656Z,5.33
2017-11-25T19:26:51.402Z,5.36
2017-11-25T19:27:57.520Z,5.40
2017-11-25T19:29:02.929Z,5.41
2017-11-25T19:30:08.663Z,5.42
2017-11-25T19:31:13.685Z,5.41
2017-11-25T19:32:18.822Z,5.43
2017-11-25T19:33:25.428Z,5.42
2017-11-25T19:34:30.104Z,5.40
2017-11-25T19:35:35.593Z,5.42
2017-11-25T19:36:41.073Z,5.41
2017-11-25T19:37:47.020Z,5.39
2017-11-25T19:38:53.170Z,5.38
2017-11-25T19:39:58.349Z,5.41
2017-11-25T19:41:03.571Z,5.40
2017-11-25T19:42:09.679Z,5.38
2017-11-25T19:43:15.166Z,5.36
2017-11-25T19:44:19.754Z,5.33
2017-11-25T19:45:24.248Z,5.31
2017-11-25T19:46:30.487Z,5.32
2017-11-25T19:47:35.877Z,5.30
2017-11-25T19:48:40.539Z,5.26
2017-11-25T19:49:46.276Z,5.20
2017-11-25T19:50:52.441Z,5.18
2017-11-25T19:51:57.935Z,5.16
2017-11-25T19:53:02.506Z,5.13
2017-11-25T19:54:06.993Z,5.12
2017-11-25T19:55:12.319Z,5.09
2017-11-25T19:56:16.868Z,5.05
2017-11-25T19:57:21.548Z,5.05
2017-11-25T19:58:26.879Z,5.05
2017-11-25T19:59:32.116Z,5.06
2017-11-25T20:00:37.869Z,5.02
2017-11-25T20:01:43.045Z,4.96
2017-11-25T20:02:48.409Z,4.93
2017-11-25T20:03:53.667Z,4.88
2017-11-25T20:04:58.140Z,4.86
2017-11-25T20:06:02.663Z,4.82
2017-11-25T20:07:08.405Z,4.81
2017-11-25T20:08:13.945Z,4.80
2017-11-25T20:09:19.182Z,4.80
2017-11-25T20:10:25.369Z,4.79
2017-11-25T20:11:30.652Z,4.77
2017-11-25T20:12:36.378Z,4.75
2017-11-25T20:13:40.980Z,4.73
2017-11-25T20:14:47.364Z,4.73
2017-11-25T20:15:53.192Z,4.75
2017-11-25T20:16:58.455Z,4.73
2017-11-25T20:18:02.924Z,4.72
2017-11-25T20:19:08.808Z,4.72
2017-11-25T20:20:13.407Z,4.71
2017-11-25T20:21:18.696Z,4.68
2017-11-25T20:22:24.710Z,4.70
2017-11-25T20:23:29.283Z,4.71
2017-11-25T20:24:34.165Z,4.72
2017-11-25T20:25:39.539Z,4.67
2017-11-25T20:26:46.727Z,4.68
2017-11-25T20:27:52.754Z,4.69
2017-11-25T20:28:58.752Z,4.68
2017-11-25T20:30:03.649Z,4.67
2017-11-25T20:31:09.771Z,4.67
2017-11-25T20:32:14.213Z,4.69
2017-11-25T20:33:20.332Z,4.69
2017-11-25T20:34:24.867Z,4.68
2017-11-25T20:35:33.594Z,4.66
2017-11-25T20:36:38.916Z,4.63
2017-11-25T20:37:44.445Z,4.64
2017-11-25T20:38:50.440Z,4.67
2017-11-25T20:39:55.280Z,4.69
2017-11-25T20:40:59.797Z,4.70
2017-11-25T20:42:04.291Z,4.72
2017-11-25T20:43:08.766Z,4.73
2017-11-25T20:44:13.279Z,4.75
2017-11-25T20:45:19.157Z,4.77
2017-11-25T20:46:23.677Z,4.79
2017-11-25T20:47:28.135Z,4.78
2017-11-25T20:48:34.383Z,4.79
2017-11-25T20:49:39.712Z,4.77
2017-11-25T20:50:45.062Z,4.79
2017-11-25T20:51:49.676Z,4.83
2017-11-25T20:52:55.103Z,4.86
2017-11-25T20:54:00.430Z,4.86
2017-11-25T20:55:04.895Z,4.88
2017-11-25T20:56:10.776Z,4.88
2017-11-25T20:57:16.346Z,4.90
2017-11-25T20:58:20.954Z,4.91
2017-11-25T20:59:25.423Z,4.91
2017-11-25T21:00:29.890Z,4.91
2017-11-25T21:01:36.116Z,4.91
2017-11-25T21:02:41.607Z,4.95
2017-11-25T21:03:46.221Z,4.91
2017-11-25T21:04:51.926Z,4.92
2017-11-25T21:05:57.130Z,4.92
2017-11-25T21:07:02.527Z,4.93
2017-11-25T21:08:07.805Z,4.97
2017-11-25T21:09:13.185Z,4.98
2017-11-25T21:10:17.942Z,4.98
2017-11-25T21:11:23.272Z,4.97
2017-11-25T21:12:28.527Z,4.96
2017-11-25T21:13:33.043Z,4.99
2017-11-25T21:14:38.755Z,4.99
2017-11-25T21:15:44.014Z,5.02
2017-11-25T21:16:49.519Z,5.02
2017-11-25T21:17:54.827Z,5.02
2017-11-25T21:19:00.049Z,5.03
2017-11-25T21:20:04.557Z,5.05
2017-11-25T21:21:09.006Z,5.03
2017-11-25T21:22:14.236Z,5.07
2017-11-25T21:23:19.450Z,5.06
2017-11-25T21:24:25.385Z,5.02
2017-11-25T21:25:30.843Z,5.04
2017-11-25T21:26:36.107Z,5.07
2017-11-25T21:27:40.701Z,5.06
2017-11-25T21:28:45.862Z,5.06
2017-11-25T21:29:50.405Z,5.08
2017-11-25T21:30:55.063Z,5.07
2017-11-25T21:31:59.505Z,5.08
2017-11-25T21:33:04.098Z,5.05
2017-11-25T21:34:08.665Z,5.06
2017-11-25T21:35:14.728Z,5.07
2017-11-25T21:36:19.985Z,5.05
2017-11-25T21:37:24.421Z,5.04
2017-11-25T21:38:28.899Z,5.06
2017-11-25T21:39:33.366Z,5.08
2017-11-25T21:40:38.742Z,5.07
2017-11-25T21:41:43.154Z,5.07
2017-11-25T21:42:47.685Z,5.09
2017-11-25T21:43:52.384Z,5.11
2017-11-25T21:44:56.898Z,5.13
2017-11-25T21:46:01.388Z,5.12
2017-11-25T21:47:06.985Z,5.13
2017-11-25T21:48:11.880Z,5.12
2017-11-25T21:49:16.395Z,5.10
2017-11-25T21:50:20.865Z,5.11
2017-11-25T21:51:26.175Z,5.10
2017-11-25T21:52:30.734Z,5.09
2017-11-25T21:53:36.992Z,5.12
2017-11-25T21:54:41.436Z,5.14
2017-11-25T21:55:46.512Z,5.14
2017-11-25T21:56:51.246Z,5.11
2017-11-25T21:57:55.687Z,5.13
2017-11-25T21:59:01.094Z,5.12
2017-11-25T22:00:05.585Z,5.11
2017-11-25T22:01:10.108Z,5.14
2017-11-25T22:02:14.707Z,5.13
2017-11-25T22:03:19.163Z,5.11
2017-11-25T22:04:23.701Z,5.09
2017-11-25T22:05:28.492Z,5.07
2017-11-25T22:06:33.063Z,5.04
2017-11-25T22:07:38.700Z,5.06
2017-11-25T22:08:43.936Z,5.04
2017-11-25T22:09:48.444Z,5.01
2017-11-25T22:10:53.833Z,4.98
2017-11-25T22:11:58.284Z,4.93
2017-11-25T22:13:04.263Z,4.88
2017-11-25T22:14:08.783Z,4.91
2017-11-25T22:15:13.217Z,4.89
2017-11-25T22:16:19.135Z,4.88
2017-11-25T22:17:24.479Z,4.86
2017-11-25T22:18:28.932Z,4.85
2017-11-25T22:19:34.683Z,4.87
2017-11-25T22:20:39.181Z,4.85
2017-11-25T22:21:43.596Z,4.83
2017-11-25T22:22:49.463Z,4.79
2017-11-25T22:23:54.878Z,4.75
2017-11-25T22:24:59.547Z,4.72
2017-11-25T22:26:05.527Z,4.73
2017-11-25T22:27:10.642Z,4.71
2017-11-25T22:28:15.243Z,4.66
2017-11-25T22:29:21.434Z,4.63
2017-11-25T22:30:27.350Z,4.61
2017-11-25T22:31:32.602Z,4.58
2017-11-25T22:32:36.998Z,4.58
2017-11-25T22:33:41.478Z,4.56
2017-11-25T22:34:46.003Z,4.53
2017-11-25T22:35:50.448Z,4.52
2017-11-25T22:36:56.197Z,4.51
2017-11-25T22:38:02.009Z,4.55
2017-11-25T22:39:08.118Z,4.57
2017-11-25T22:40:12.710Z,4.57
2017-11-25T22:41:17.219Z,4.59
2017-11-25T22:42:22.749Z,4.61
2017-11-25T22:43:27.040Z,4.64
2017-11-25T22:44:31.484Z,4.64
2017-11-25T22:45:36.847Z,4.64
2017-11-25T22:46:41.359Z,4.64
2017-11-25T22:47:45.749Z,4.66
2017-11-25T22:48:50.103Z,4.68
2017-11-25T22:49:54.447Z,4.68
2017-11-25T22:51:01.206Z,4.70
2017-11-25T22:52:07.203Z,4.72
2017-11-25T22:53:11.679Z,4.73
2017-11-25T22:54:15.989Z,4.75
2017-11-25T22:55:20.336Z,4.75
2017-11-25T22:56:24.685Z,4.75
2017-11-25T22:57:29.664Z,4.74
2017-11-25T22:58:34.617Z,4.73
2017-11-25T22:59:39.674Z,4.72
2017-11-25T23:00:44.876Z,4.71
2017-11-25T23:01:50.370Z,4.70
2017-11-25T23:02:56.425Z,4.69
2017-11-25T23:04:01.487Z,4.68
2017-11-25T23:05:07.964Z,4.67
2017-11-25T23:06:12.300Z,4.67
2017-11-25T23:07:16.744Z,4.68
2017-11-25T23:08:21.783Z,4.67
2017-11-25T23:09:27.981Z,4.69
2017-11-25T23:10:37.983Z,4.70
2017-11-25T23:11:44.799Z,4.72
2017-11-25T23:12:49.470Z,4.73
2017-11-25T23:13:54.016Z,4.76
2017-11-25T23:14:58.294Z,4.78
2017-11-25T23:16:03.528Z,4.80
2017-11-25T23:17:08.166Z,4.80
2017-11-25T23:18:13.860Z,4.81
2017-11-25T23:19:18.324Z,4.81
2017-11-25T23:20:24.183Z,4.80
2017-11-25T23:21:28.416Z,4.84
2017-11-25T23:22:32.651Z,4.86
2017-11-25T23:23:36.874Z,4.87
2017-11-25T23:24:41.287Z,4.89
2017-11-25T23:25:45.769Z,4.90
2017-11-25T23:26:50.823Z,4.91
2017-11-25T23:27:55.164Z,4.94
2017-11-25T23:28:59.507Z,4.96
2017-11-25T23:30:03.773Z,4.94
2017-11-25T23:31:08.043Z,4.92
2017-11-25T23:32:12.975Z,4.92
2017-11-25T23:33:17.139Z,4.93
2017-11-25T23:34:21.331Z,4.93
2017-11-25T23:35:25.490Z,4.91
2017-11-25T23:36:30.406Z,4.92
2017-11-25T23:37:34.575Z,4.90
2017-11-25T23:38:38.735Z,4.88
2017-11-25T23:39:42.927Z,4.82
2017-11-25T23:40:47.088Z,4.77
2017-11-25T23:41:51.241Z,4.73
2017-11-25T23:42:55.406Z,4.69
2017-11-25T23:44:00.752Z,4.67
2017-11-25T23:46:21.048Z,4.65
2017-11-25T23:47:26.775Z,4.63
2017-11-25T23:48:32.554Z,4.62
2017-11-25T23:49:39.045Z,4.58
2017-11-25T23:50:45.527Z,4.52
2017-11-25T23:51:51.198Z,4.60
2017-11-25T23:52:56.923Z,4.58
2017-11-25T23:54:02.635Z,4.55
2017-11-25T23:55:08.154Z,4.49
2017-11-25T23:56:13.900Z,4.47
2017-11-25T23:57:19.658Z,4.41
2017-11-25T23:58:25.404Z,4.40
2017-11-25T23:59:31.119Z,4.40
